Time;durP1;ratioP1;P1;durP2;ratioP2;P2;SDS_P1;SDS_P2;PMS_P1;PMS_P2;Temp;Humidity;BMP_temperature;BMP_pressure;BME280_temperature;BME280_humidity;BME280_pressure;Samples;Min_cycle;Max_cycle;Signal;HPM_P1;HPM_P2
2023/02/17 00:00:57;;;;;;;2.33;0.85;;;;;;;;;;5127714;28;20019;-63
2023/02/17 00:03:24;;;;;;;1.63;0.93;;;;;;;;;;5129675;28;20027;-63
2023/02/17 00:05:51;;;;;;;2.10;1.23;;;;;;;;;;5132592;28;20415;-62
2023/02/17 00:08:17;;;;;;;6.03;1.33;;;;;;;;;;5132917;28;20458;-62
2023/02/17 00:10:44;;;;;;;14.77;1.52;;;;;;;;;;5132789;28;20019;-63
2023/02/17 00:13:11;;;;;;;1.80;0.98;;;;;;;;;;5132039;28;20023;-63
2023/02/17 00:15:38;;;;;;;24.90;0.95;;;;;;;;;;5129783;28;20382;-63
2023/02/17 00:18:05;;;;;;;3.42;1.13;;;;;;;;;;5127219;28;20059;-62
2023/02/17 00:20:32;;;;;;;4.60;1.92;;;;;;;;;;5126425;28;20424;-63
2023/02/17 00:22:59;;;;;;;5.72;3.38;;;;;;;;;;5128211;27;20026;-63
2023/02/17 00:25:25;;;;;;;10.43;2.50;;;;;;;;;;5132941;27;20031;-63
2023/02/17 00:27:52;;;;;;;2.75;1.55;;;;;;;;;;5136121;27;20027;-63
2023/02/17 00:30:19;;;;;;;13.25;1.35;;;;;;;;;;5135836;27;20758;-63
2023/02/17 00:32:46;;;;;;;3.30;1.45;;;;;;;;;;5135763;27;20028;-63
2023/02/17 00:35:12;;;;;;;4.57;1.80;;;;;;;;;;5136009;27;20413;-63
2023/02/17 00:37:39;;;;;;;3.28;1.20;;;;;;;;;;5133884;27;20377;-63
2023/02/17 00:40:06;;;;;;;3.83;1.27;;;;;;;;;;5130183;27;20038;-63
2023/02/17 00:42:33;;;;;;;4.72;1.70;;;;;;;;;;5130644;27;20030;-63
2023/02/17 00:45:00;;;;;;;3.30;1.38;;;;;;;;;;5130411;27;20047;-63
2023/02/17 00:47:26;;;;;;;3.75;0.98;;;;;;;;;;5131868;27;20069;-63
2023/02/17 00:49:53;;;;;;;4.65;1.40;;;;;;;;;;5134860;27;20027;-63
2023/02/17 00:52:20;;;;;;;6.47;1.77;;;;;;;;;;5135505;27;20042;-63
2023/02/17 00:54:47;;;;;;;2.85;1.42;;;;;;;;;;5135439;27;20027;-63
2023/02/17 00:57:13;;;;;;;4.18;1.65;;;;;;;;;;5135612;27;20025;-63
2023/02/17 00:59:40;;;;;;;3.42;1.20;;;;;;;;;;5133845;27;20051;-63
2023/02/17 01:02:07;;;;;;;4.45;1.50;;;;;;;;;;5130165;27;20034;-63
2023/02/17 01:04:34;;;;;;;0.98;0.85;;;;;;;;;;5130374;27;20473;-64
2023/02/17 01:07:00;;;;;;;1.88;1.10;;;;;;;;;;5129877;27;20035;-64
2023/02/17 01:09:27;;;;;;;1.90;0.95;;;;;;;;;;5130539;27;20032;-63
2023/02/17 01:11:54;;;;;;;0.75;0.63;;;;;;;;;;5134995;27;20106;-63
2023/02/17 01:14:20;;;;;;;3.40;1.35;;;;;;;;;;5135258;27;20102;-63
2023/02/17 01:16:48;;;;;;;10.73;1.90;;;;;;;;;;5135421;27;20343;-63
2023/02/17 01:19:17;;;;;;;11.18;2.47;;;;;;;;;;5135114;27;20031;-63
2023/02/17 01:21:44;;;;;;;13.00;1.35;;;;;;;;;;5134249;27;20492;-63
2023/02/17 01:24:11;;;;;;;3.33;1.40;;;;;;;;;;5129478;27;20054;-62
2023/02/17 01:26:39;;;;;;;10.65;1.73;;;;;;;;;;5129842;27;20087;-63
2023/02/17 01:29:06;;;;;;;2.03;1.10;;;;;;;;;;5129885;27;20382;-63
2023/02/17 01:31:33;;;;;;;6.57;1.80;;;;;;;;;;5129356;27;20031;-63
2023/02/17 01:34:01;;;;;;;2.30;1.17;;;;;;;;;;5134619;27;20030;-63
2023/02/17 01:36:28;;;;;;;2.88;1.45;;;;;;;;;;5134838;27;20027;-63
2023/02/17 01:38:55;;;;;;;11.03;2.10;;;;;;;;;;5134668;27;20031;-63
2023/02/17 01:41:25;;;;;;;4.10;1.80;;;;;;;;;;5134596;27;20031;-63
2023/02/17 01:44:12;;;;;;;3.10;1.53;;;;;;;;;;5134669;27;20023;-63
2023/02/17 01:46:40;;;;;;;2.83;1.47;;;;;;;;;;5129402;27;20489;-63
2023/02/17 01:49:25;;;;;;;1.73;0.87;;;;;;;;;;5129308;27;20496;-63
2023/02/17 01:52:05;;;;;;;2.10;1.15;;;;;;;;;;5128955;27;20079;-63
2023/02/17 01:54:36;;;;;;;4.93;1.63;;;;;;;;;;5130312;27;20023;-62
2023/02/17 01:57:03;;;;;;;1.83;1.07;;;;;;;;;;5134275;27;20049;-63
2023/02/17 01:59:30;;;;;;;4.17;1.73;;;;;;;;;;5134341;27;20374;-62
2023/02/17 02:01:58;;;;;;;2.10;0.97;;;;;;;;;;5133940;27;20019;-63
2023/02/17 02:04:28;;;;;;;5.13;1.57;;;;;;;;;;5134190;27;20019;-62
2023/02/17 02:06:55;;;;;;;0.97;0.77;;;;;;;;;;5132644;27;20422;-62
2023/02/17 02:09:25;;;;;;;5.13;1.67;;;;;;;;;;5129117;27;20102;-63
2023/02/17 02:11:52;;;;;;;0.83;0.73;;;;;;;;;;5128602;27;20477;-63
2023/02/17 02:14:20;;;;;;;3.23;1.53;;;;;;;;;;5128899;27;20027;-64
2023/02/17 02:16:53;;;;;;;2.90;1.10;;;;;;;;;;5129669;27;20381;-63
2023/02/17 02:19:20;;;;;;;7.33;0.83;;;;;;;;;;5133597;27;20042;-63
2023/02/17 02:22:07;;;;;;;3.67;2.07;;;;;;;;;;5133722;27;20047;-63
2023/02/17 02:24:36;;;;;;;4.20;1.93;;;;;;;;;;5116722;27;20042;-63
2023/02/17 02:27:13;;;;;;;10.27;1.57;;;;;;;;;;5133835;27;20023;-63
2023/02/17 02:29:56;;;;;;;6.17;1.97;;;;;;;;;;5131358;27;20105;-63
2023/02/17 02:32:23;;;;;;;8.47;1.23;;;;;;;;;;5108151;28;20027;-63
2023/02/17 02:34:55;;;;;;;2.80;1.70;;;;;;;;;;5108104;28;20026;-63
2023/02/17 02:37:25;;;;;;;2.37;1.00;;;;;;;;;;5107768;28;20386;-63
2023/02/17 02:39:53;;;;;;;1.77;0.97;;;;;;;;;;5110464;27;20077;-64
2023/02/17 02:42:22;;;;;;;5.37;1.17;;;;;;;;;;5113087;28;20107;-63
2023/02/17 02:44:49;;;;;;;1.70;0.87;;;;;;;;;;5112568;28;20032;-62
2023/02/17 02:47:40;;;;;;;3.17;1.23;;;;;;;;;;5113044;28;20025;-63
2023/02/17 02:50:08;;;;;;;3.87;2.07;;;;;;;;;;5117907;27;20076;-62
2023/02/17 02:52:46;;;;;;;3.83;1.60;;;;;;;;;;5129757;27;20027;-63
2023/02/17 02:55:22;;;;;;;1.70;0.93;;;;;;;;;;5128053;27;20130;-62
2023/02/17 02:58:06;;;;;;;2.40;1.13;;;;;;;;;;5128080;27;20075;-62
2023/02/17 03:00:45;;;;;;;6.03;1.80;;;;;;;;;;5127508;27;20046;-63
2023/02/17 03:03:30;;;;;;;8.53;2.30;;;;;;;;;;5132544;27;20076;-62
2023/02/17 03:06:07;;;;;;;2.67;1.60;;;;;;;;;;5133295;27;20064;-62
2023/02/17 03:08:43;;;;;;;5.07;1.47;;;;;;;;;;5132955;28;20015;-63
2023/02/17 03:11:10;;;;;;;5.63;1.50;;;;;;;;;;5112872;28;20835;-63
2023/02/17 03:13:38;;;;;;;11.67;1.73;;;;;;;;;;5112183;28;20027;-63
2023/02/17 03:16:06;;;;;;;9.33;1.50;;;;;;;;;;5107405;28;20355;-62
2023/02/17 03:18:33;;;;;;;1.57;0.90;;;;;;;;;;5107305;28;20498;-63
2023/02/17 03:21:08;;;;;;;2.23;1.20;;;;;;;;;;5125732;28;20423;-62
2023/02/17 03:23:34;;;;;;;2.95;1.35;;;;;;;;;;5127940;28;20031;-63
2023/02/17 03:26:01;;;;;;;2.50;1.80;;;;;;;;;;5132945;28;20095;-62
2023/02/17 03:28:28;;;;;;;15.23;2.30;;;;;;;;;;5133060;28;20023;-63
2023/02/17 03:30:55;;;;;;;30.50;4.33;;;;;;;;;;5133231;28;20038;-63
2023/02/17 03:33:21;;;;;;;1.83;0.90;;;;;;;;;;5132898;28;20020;-63
2023/02/17 03:35:48;;;;;;;2.20;1.20;;;;;;;;;;5132471;28;20031;-62
2023/02/17 03:38:15;;;;;;;4.97;1.20;;;;;;;;;;5127881;28;20369;-63
2023/02/17 03:40:42;;;;;;;8.40;2.50;;;;;;;;;;5127492;28;20036;-63
2023/02/17 03:43:08;;;;;;;11.27;2.67;;;;;;;;;;5127756;28;20023;-62
2023/02/17 03:45:36;;;;;;;22.80;3.77;;;;;;;;;;5127313;28;20179;-63
2023/02/17 03:48:03;;;;;;;7.97;2.40;;;;;;;;;;5126157;28;20030;-62
2023/02/17 03:50:31;;;;;;;2.23;1.37;;;;;;;;;;5115279;28;20050;-62
2023/02/17 03:52:57;;;;;;;1.90;1.30;;;;;;;;;;5123950;28;20034;-62
2023/02/17 03:55:24;;;;;;;9.20;2.50;;;;;;;;;;5113004;28;20031;-62
2023/02/17 03:57:51;;;;;;;4.20;1.43;;;;;;;;;;5119818;27;20019;-63
2023/02/17 04:00:18;;;;;;;5.93;2.03;;;;;;;;;;5131931;27;20028;-62
2023/02/17 04:02:45;;;;;;;25.20;2.60;;;;;;;;;;5131615;27;20019;-62
2023/02/17 04:05:11;;;;;;;1.83;1.13;;;;;;;;;;5130923;27;20492;-64
2023/02/17 04:07:38;;;;;;;2.90;1.70;;;;;;;;;;5130687;27;20037;-63
2023/02/17 04:10:05;;;;;;;10.33;2.07;;;;;;;;;;5134724;27;20053;-63
2023/02/17 04:12:32;;;;;;;1.70;1.00;;;;;;;;;;5136387;27;20098;-63
2023/02/17 04:14:59;;;;;;;6.10;1.00;;;;;;;;;;5136135;27;20026;-63
2023/02/17 04:17:26;;;;;;;9.40;3.77;;;;;;;;;;5116208;27;20100;-63
2023/02/17 04:19:52;;;;;;;12.40;3.73;;;;;;;;;;5115759;28;20040;-63
2023/02/17 04:22:19;;;;;;;3.00;2.27;;;;;;;;;;5111724;28;20032;-63
2023/02/17 04:24:46;;;;;;;3.73;2.00;;;;;;;;;;5110269;28;20046;-63
2023/02/17 04:27:13;;;;;;;6.00;2.63;;;;;;;;;;5110495;28;20073;-63
2023/02/17 04:29:39;;;;;;;2.00;1.33;;;;;;;;;;5110370;28;20055;-63
2023/02/17 04:32:06;;;;;;;2.70;1.60;;;;;;;;;;5131662;27;20084;-63
2023/02/17 04:34:33;;;;;;;4.20;1.60;;;;;;;;;;5135898;27;20046;-63
2023/02/17 04:37:00;;;;;;;4.87;2.03;;;;;;;;;;5136141;27;20026;-63
2023/02/17 04:39:27;;;;;;;4.67;2.23;;;;;;;;;;5136060;27;20027;-63
2023/02/17 04:41:53;;;;;;;2.10;1.10;;;;;;;;;;5135451;27;20024;-63
2023/02/17 04:44:20;;;;;;;1.57;1.03;;;;;;;;;;5131768;27;20117;-64
2023/02/17 04:46:47;;;;;;;3.83;1.47;;;;;;;;;;5130304;27;20478;-63
2023/02/17 04:49:13;;;;;;;6.17;2.37;;;;;;;;;;5130642;27;20295;-63
2023/02/17 04:51:40;;;;;;;3.57;1.80;;;;;;;;;;5129691;27;20031;-63
2023/02/17 04:54:07;;;;;;;1.77;1.00;;;;;;;;;;5132747;27;20019;-63
2023/02/17 04:56:34;;;;;;;2.27;1.53;;;;;;;;;;5135708;27;20091;-62
2023/02/17 04:59:00;;;;;;;7.00;2.03;;;;;;;;;;5134619;27;20359;-63
2023/02/17 05:01:27;;;;;;;10.40;3.83;;;;;;;;;;5135315;27;20473;-63
2023/02/17 05:03:54;;;;;;;4.50;2.63;;;;;;;;;;5134798;27;20465;-65
2023/02/17 05:06:21;;;;;;;2.03;1.53;;;;;;;;;;5127319;27;20018;-63
2023/02/17 05:08:49;;;;;;;4.03;2.10;;;;;;;;;;5108878;28;20046;-63
2023/02/17 05:11:16;;;;;;;9.30;1.83;;;;;;;;;;5109611;28;20024;-64
2023/02/17 05:13:43;;;;;;;6.13;1.90;;;;;;;;;;5115550;27;20031;-63
2023/02/17 05:16:10;;;;;;;1.80;1.17;;;;;;;;;;5131735;27;20019;-63
2023/02/17 05:18:37;;;;;;;1.70;1.10;;;;;;;;;;5134938;27;20140;-63
2023/02/17 05:21:03;;;;;;;2.10;0.93;;;;;;;;;;5135266;27;20095;-63
2023/02/17 05:23:30;;;;;;;3.40;2.03;;;;;;;;;;5134923;27;20023;-63
2023/02/17 05:25:57;;;;;;;4.43;2.30;;;;;;;;;;5133721;27;20019;-63
2023/02/17 05:28:24;;;;;;;1.90;1.37;;;;;;;;;;5132761;27;20051;-63
2023/02/17 05:30:50;;;;;;;1.73;1.10;;;;;;;;;;5129822;27;20497;-63
2023/02/17 05:33:17;;;;;;;2.43;1.53;;;;;;;;;;5129579;27;20023;-63
2023/02/17 05:35:44;;;;;;;3.97;1.70;;;;;;;;;;5129289;27;20471;-63
2023/02/17 05:38:11;;;;;;;9.73;1.87;;;;;;;;;;5130426;27;20072;-63
2023/02/17 05:40:37;;;;;;;1.43;1.03;;;;;;;;;;5134561;27;20035;-63
2023/02/17 05:43:04;;;;;;;1.37;0.97;;;;;;;;;;5134562;27;20481;-63
2023/02/17 05:45:31;;;;;;;3.30;1.50;;;;;;;;;;5133970;27;20496;-64
2023/02/17 05:47:58;;;;;;;5.23;1.27;;;;;;;;;;5134462;27;20059;-63
2023/02/17 05:50:27;;;;;;;3.13;1.53;;;;;;;;;;5133001;27;20091;-63
2023/02/17 05:52:53;;;;;;;1.07;0.70;;;;;;;;;;5129326;27;20024;-63
2023/02/17 05:55:21;;;;;;;3.90;1.60;;;;;;;;;;5129253;27;20100;-63
2023/02/17 05:57:48;;;;;;;1.50;1.13;;;;;;;;;;5128883;27;21879;-63
2023/02/17 06:00:16;;;;;;;1.80;0.73;;;;;;;;;;5128944;27;20121;-63
2023/02/17 06:02:43;;;;;;;0.70;0.50;;;;;;;;;;5134416;27;20023;-63
2023/02/17 06:05:10;;;;;;;1.93;1.23;;;;;;;;;;5134220;27;20497;-63
2023/02/17 06:07:37;;;;;;;4.27;1.40;;;;;;;;;;5133664;27;20052;-63
2023/02/17 06:10:03;;;;;;;17.40;2.17;;;;;;;;;;5134092;27;20023;-63
2023/02/17 06:12:30;;;;;;;2.43;1.33;;;;;;;;;;5133464;27;20031;-63
2023/02/17 06:14:57;;;;;;;0.93;0.60;;;;;;;;;;5128578;27;20015;-63
2023/02/17 06:17:24;;;;;;;8.53;1.50;;;;;;;;;;5128411;27;20453;-63
2023/02/17 06:19:50;;;;;;;2.90;1.07;;;;;;;;;;5127959;27;20106;-63
2023/02/17 06:22:17;;;;;;;7.17;1.40;;;;;;;;;;5128863;27;20963;-63
2023/02/17 06:24:44;;;;;;;3.00;1.87;;;;;;;;;;5133368;27;20027;-63
2023/02/17 06:27:11;;;;;;;1.03;0.80;;;;;;;;;;5134076;27;20029;-63
2023/02/17 06:29:37;;;;;;;2.13;1.53;;;;;;;;;;5133911;27;20015;-63
2023/02/17 06:32:04;;;;;;;1.00;0.70;;;;;;;;;;5133652;27;20027;-63
2023/02/17 06:34:31;;;;;;;1.77;1.10;;;;;;;;;;5133512;27;20031;-65
2023/02/17 06:36:58;;;;;;;1.77;1.07;;;;;;;;;;5127733;27;20023;-64
2023/02/17 06:39:24;;;;;;;2.90;1.40;;;;;;;;;;5128334;27;20456;-63
2023/02/17 06:41:51;;;;;;;18.70;1.20;;;;;;;;;;5128154;27;20412;-63
2023/02/17 06:44:18;;;;;;;3.93;1.40;;;;;;;;;;5128237;27;20023;-63
2023/02/17 06:46:45;;;;;;;1.90;1.20;;;;;;;;;;5132381;27;20110;-63
2023/02/17 06:49:13;;;;;;;3.33;0.77;;;;;;;;;;5133694;27;20477;-63
2023/02/17 06:51:39;;;;;;;1.43;0.87;;;;;;;;;;5133393;27;20023;-63
2023/02/17 06:54:06;;;;;;;3.47;1.37;;;;;;;;;;5133154;27;20373;-62
2023/02/17 06:56:33;;;;;;;2.20;0.90;;;;;;;;;;5133092;27;20118;-63
2023/02/17 06:59:01;;;;;;;1.73;1.03;;;;;;;;;;5128299;27;20034;-63
2023/02/17 07:01:28;;;;;;;2.63;0.87;;;;;;;;;;5128066;27;20076;-62
2023/02/17 07:03:56;;;;;;;2.33;1.20;;;;;;;;;;5128030;27;20046;-63
2023/02/17 07:06:23;;;;;;;1.57;1.20;;;;;;;;;;5127890;27;20023;-62
2023/02/17 07:08:50;;;;;;;0.80;0.60;;;;;;;;;;5131521;27;20016;-62
2023/02/17 07:11:17;;;;;;;2.20;0.87;;;;;;;;;;5132868;28;20027;-63
2023/02/17 07:13:43;;;;;;;1.50;0.80;;;;;;;;;;5133185;28;20058;-63
2023/02/17 07:16:12;;;;;;;2.87;1.57;;;;;;;;;;5132548;28;20034;-62
2023/02/17 07:18:39;;;;;;;13.13;1.87;;;;;;;;;;5132962;28;20385;-62
2023/02/17 07:21:09;;;;;;;1.07;0.87;;;;;;;;;;5128930;28;20402;-62
2023/02/17 07:23:37;;;;;;;0.93;0.70;;;;;;;;;;5127488;28;20513;-63
2023/02/17 07:26:05;;;;;;;1.67;0.87;;;;;;;;;;5127079;28;20036;-64
2023/02/17 07:28:32;;;;;;;4.67;1.20;;;;;;;;;;5127725;28;20015;-63
2023/02/17 07:31:05;;;;;;;1.20;0.93;;;;;;;;;;5131724;27;20034;-62
2023/02/17 07:33:31;;;;;;;3.43;1.30;;;;;;;;;;5136792;27;20447;-62
2023/02/17 07:35:59;;;;;;;2.53;1.10;;;;;;;;;;5136950;27;20023;-62
2023/02/17 07:38:25;;;;;;;3.40;1.23;;;;;;;;;;5136803;27;20025;-62
2023/02/17 07:40:52;;;;;;;1.00;0.70;;;;;;;;;;5136424;27;20031;-62
2023/02/17 07:43:19;;;;;;;2.40;0.90;;;;;;;;;;5133018;27;20030;-63
2023/02/17 07:45:45;;;;;;;1.57;0.90;;;;;;;;;;5131194;27;20455;-63
2023/02/17 07:48:12;;;;;;;2.40;0.97;;;;;;;;;;5131474;27;20038;-63
2023/02/17 07:50:39;;;;;;;1.17;0.80;;;;;;;;;;5131690;27;20022;-62
2023/02/17 07:53:06;;;;;;;2.07;0.87;;;;;;;;;;5134286;27;20026;-62
2023/02/17 07:55:32;;;;;;;1.43;1.00;;;;;;;;;;5136616;27;20019;-62
2023/02/17 07:57:59;;;;;;;0.70;0.60;;;;;;;;;;5136169;27;20530;-62
2023/02/17 08:00:26;;;;;;;2.37;1.07;;;;;;;;;;5136555;27;20035;-63
2023/02/17 08:02:53;;;;;;;1.53;0.80;;;;;;;;;;5136631;27;20027;-62
2023/02/17 08:05:19;;;;;;;11.00;1.70;;;;;;;;;;5132984;27;20492;-62
2023/02/17 08:07:46;;;;;;;2.00;0.80;;;;;;;;;;5131111;27;20027;-63
2023/02/17 08:15:43;;;;;;;1.80;1.17;;;;;;;;;;5134801;27;20445;-62
2023/02/17 08:18:10;;;;;;;2.33;1.40;;;;;;;;;;5136106;27;20015;-63
2023/02/17 08:20:37;;;;;;;0.70;0.70;;;;;;;;;;5136203;27;20043;-62
2023/02/17 08:23:03;;;;;;;1.67;0.90;;;;;;;;;;5136177;27;20023;-63
2023/02/17 08:25:34;;;;;;;1.97;1.23;;;;;;;;;;5135300;27;20038;-62
2023/02/17 08:28:01;;;;;;;1.43;0.97;;;;;;;;;;5131975;27;20027;-63
2023/02/17 08:30:28;;;;;;;2.37;1.37;;;;;;;;;;5130986;27;20420;-63
2023/02/17 08:32:54;;;;;;;3.10;1.73;;;;;;;;;;5130679;27;20360;-62
2023/02/17 08:35:21;;;;;;;1.17;0.90;;;;;;;;;;5130303;27;20111;-63
2023/02/17 08:37:51;;;;;;;2.27;1.30;;;;;;;;;;5133920;27;20026;-63
2023/02/17 08:40:18;;;;;;;2.27;1.13;;;;;;;;;;5135105;27;20541;-63
2023/02/17 08:42:45;;;;;;;2.10;1.43;;;;;;;;;;5134764;27;20035;-62
2023/02/17 08:45:15;;;;;;;2.03;0.97;;;;;;;;;;5135685;27;20027;-62
2023/02/17 08:47:42;;;;;;;1.23;0.70;;;;;;;;;;5135817;27;20035;-63
2023/02/17 08:50:10;;;;;;;0.60;0.50;;;;;;;;;;5131644;27;20401;-63
2023/02/17 08:52:37;;;;;;;0.97;0.67;;;;;;;;;;5130361;27;20027;-63
2023/02/17 08:55:04;;;;;;;3.50;1.20;;;;;;;;;;5130430;27;20106;-62
2023/02/17 08:57:30;;;;;;;4.20;1.97;;;;;;;;;;5129850;27;20373;-62
2023/02/17 08:59:57;;;;;;;1.97;0.80;;;;;;;;;;5132977;27;20039;-63
2023/02/17 09:02:24;;;;;;;1.63;1.20;;;;;;;;;;5135464;27;20023;-62
2023/02/17 09:04:51;;;;;;;6.97;1.23;;;;;;;;;;5135355;27;20052;-63
2023/02/17 09:07:17;;;;;;;3.03;1.37;;;;;;;;;;5135128;27;20410;-64
2023/02/17 09:09:44;;;;;;;2.57;1.23;;;;;;;;;;5118235;27;20374;-63
2023/02/17 09:12:11;;;;;;;5.40;1.47;;;;;;;;;;5132262;27;20034;-63
2023/02/17 09:14:38;;;;;;;1.47;1.20;;;;;;;;;;5129561;27;20363;-63
2023/02/17 09:17:05;;;;;;;7.50;1.23;;;;;;;;;;5130020;27;20050;-63
2023/02/17 09:19:32;;;;;;;2.13;1.07;;;;;;;;;;5129403;27;20035;-63
2023/02/17 09:21:58;;;;;;;9.43;1.47;;;;;;;;;;5131638;27;20496;-63
2023/02/17 09:24:25;;;;;;;0.87;0.77;;;;;;;;;;5134910;27;20105;-62
2023/02/17 09:26:52;;;;;;;2.03;1.33;;;;;;;;;;5135176;27;20026;-62
2023/02/17 09:29:19;;;;;;;2.83;1.57;;;;;;;;;;5134950;27;20031;-62
2023/02/17 09:31:45;;;;;;;2.40;1.23;;;;;;;;;;5133944;27;20023;-62
2023/02/17 09:34:12;;;;;;;1.20;1.10;;;;;;;;;;5132084;27;20106;-63
2023/02/17 09:36:40;;;;;;;5.50;1.57;;;;;;;;;;5129633;27;20059;-63
2023/02/17 09:39:08;;;;;;;3.70;1.47;;;;;;;;;;5128949;27;20069;-63
2023/02/17 09:41:39;;;;;;;3.30;1.40;;;;;;;;;;5128013;27;20043;-62
2023/02/17 09:44:07;;;;;;;2.67;1.40;;;;;;;;;;5131121;27;20023;-62
2023/02/17 09:46:41;;;;;;;1.77;1.17;;;;;;;;;;5134031;27;20035;-63
2023/02/17 09:49:12;;;;;;;1.27;1.03;;;;;;;;;;5134414;27;20535;-62
2023/02/17 09:51:53;;;;;;;2.33;1.20;;;;;;;;;;5134245;27;20026;-63
2023/02/17 09:54:29;;;;;;;1.40;1.17;;;;;;;;;;5134449;27;20419;-62
2023/02/17 09:56:56;;;;;;;19.53;1.90;;;;;;;;;;5131002;27;20058;-63
2023/02/17 09:59:23;;;;;;;1.23;0.97;;;;;;;;;;5128882;27;20158;-62
2023/02/17 10:01:51;;;;;;;4.47;1.63;;;;;;;;;;5128729;27;20034;-62
2023/02/17 10:04:28;;;;;;;2.87;1.80;;;;;;;;;;5128988;27;20034;-63
2023/02/17 10:07:01;;;;;;;1.83;1.43;;;;;;;;;;5131721;27;20023;-62
2023/02/17 10:09:45;;;;;;;4.90;1.83;;;;;;;;;;5133603;27;20395;-63
2023/02/17 10:12:17;;;;;;;3.73;1.97;;;;;;;;;;5133708;27;20023;-63
2023/02/17 10:14:53;;;;;;;2.77;1.57;;;;;;;;;;5134126;27;20035;-62
2023/02/17 10:17:24;;;;;;;2.00;1.43;;;;;;;;;;5133407;27;20488;-62
2023/02/17 10:19:57;;;;;;;3.23;1.63;;;;;;;;;;5128575;27;20444;-62
2023/02/17 10:22:25;;;;;;;1.50;1.03;;;;;;;;;;5128648;27;20031;-62
2023/02/17 10:24:53;;;;;;;2.07;1.30;;;;;;;;;;5128537;27;20122;-62
2023/02/17 10:27:38;;;;;;;1.80;1.33;;;;;;;;;;5128301;27;20031;-63
2023/02/17 10:30:08;;;;;;;2.17;1.40;;;;;;;;;;5133369;27;20023;-62
2023/02/17 10:32:53;;;;;;;1.87;1.23;;;;;;;;;;5133666;27;20033;-63
2023/02/17 10:35:28;;;;;;;5.55;1.40;;;;;;;;;;5133576;27;20508;-62
2023/02/17 10:37:59;;;;;;;1.70;1.20;;;;;;;;;;5133303;27;20023;-63
2023/02/17 10:40:27;;;;;;;0.93;0.77;;;;;;;;;;5131906;27;20739;-62
2023/02/17 10:42:58;;;;;;;3.67;1.97;;;;;;;;;;5127904;27;20031;-62
2023/02/17 10:45:29;;;;;;;3.70;2.00;;;;;;;;;;5128090;27;20027;-63
2023/02/17 10:48:03;;;;;;;1.10;0.90;;;;;;;;;;5128336;27;20435;-62
2023/02/17 10:50:30;;;;;;;1.63;1.20;;;;;;;;;;5128813;27;20027;-62
2023/02/17 10:52:57;;;;;;;2.13;1.30;;;;;;;;;;5133288;27;20031;-62
2023/02/17 10:55:32;;;;;;;2.63;1.57;;;;;;;;;;5133431;27;20084;-62
2023/02/17 10:58:04;;;;;;;3.28;1.75;;;;;;;;;;5132977;27;20027;-63
2023/02/17 11:00:31;;;;;;;1.70;1.03;;;;;;;;;;5133134;27;20027;-62
2023/02/17 11:02:58;;;;;;;2.10;1.33;;;;;;;;;;5131079;27;20021;-63
2023/02/17 11:05:30;;;;;;;3.97;1.93;;;;;;;;;;5127349;27;20043;-62
2023/02/17 11:08:07;;;;;;;8.00;2.00;;;;;;;;;;5127619;27;20027;-62
2023/02/17 11:10:39;;;;;;;3.13;1.90;;;;;;;;;;5127743;27;20031;-63
2023/02/17 11:13:24;;;;;;;1.83;1.30;;;;;;;;;;5129342;27;20031;-63
2023/02/17 11:15:51;;;;;;;3.53;1.83;;;;;;;;;;5132647;28;20063;-62
2023/02/17 11:18:25;;;;;;;3.00;1.70;;;;;;;;;;5133087;28;20027;-62
2023/02/17 11:20:59;;;;;;;1.63;1.25;;;;;;;;;;5132965;28;20110;-62
2023/02/17 11:23:26;;;;;;;1.83;1.50;;;;;;;;;;5132851;28;20102;-62
2023/02/17 11:25:57;;;;;;;1.77;1.20;;;;;;;;;;5129677;28;20027;-62
2023/02/17 11:28:25;;;;;;;4.67;2.70;;;;;;;;;;5127796;28;20032;-62
2023/02/17 11:30:54;;;;;;;1.97;1.57;;;;;;;;;;5127375;28;20374;-62
2023/02/17 11:33:28;;;;;;;2.00;1.80;;;;;;;;;;5127610;28;20509;-63
2023/02/17 11:35:56;;;;;;;4.05;2.13;;;;;;;;;;5130515;28;20019;-62
2023/02/17 11:38:24;;;;;;;4.07;2.40;;;;;;;;;;5132624;28;20071;-62
2023/02/17 11:41:01;;;;;;;2.87;2.30;;;;;;;;;;5132706;28;20038;-62
2023/02/17 11:43:29;;;;;;;3.17;2.20;;;;;;;;;;5132762;28;20031;-62
2023/02/17 11:46:00;;;;;;;3.63;2.63;;;;;;;;;;5132875;28;20094;-62
2023/02/17 11:48:36;;;;;;;3.40;1.90;;;;;;;;;;5129260;28;20023;-63
2023/02/17 11:51:14;;;;;;;3.87;2.67;;;;;;;;;;5127299;28;20023;-63
2023/02/17 11:53:47;;;;;;;3.90;2.20;;;;;;;;;;5127575;28;20031;-62
2023/02/17 11:56:17;;;;;;;2.07;1.50;;;;;;;;;;5127485;28;20035;-63
2023/02/17 11:59:01;;;;;;;2.10;1.67;;;;;;;;;;5131230;28;20039;-62
2023/02/17 12:01:43;;;;;;;1.42;1.23;;;;;;;;;;5132744;28;20478;-62
2023/02/17 12:04:32;;;;;;;8.03;2.67;;;;;;;;;;5132505;28;20085;-62
2023/02/17 12:07:12;;;;;;;14.83;2.40;;;;;;;;;;5132747;28;20068;-62
2023/02/17 12:09:53;;;;;;;9.73;2.93;;;;;;;;;;5131117;28;20058;-62
2023/02/17 12:12:35;;;;;;;5.63;2.57;;;;;;;;;;5127113;28;20442;-62
2023/02/17 12:15:07;;;;;;;3.77;2.17;;;;;;;;;;5127315;28;20038;-62
2023/02/17 12:17:52;;;;;;;2.70;1.90;;;;;;;;;;5127126;27;20035;-62
2023/02/17 12:20:37;;;;;;;5.30;2.75;;;;;;;;;;5115574;27;20124;-62
2023/02/17 12:23:06;;;;;;;4.18;2.33;;;;;;;;;;5136087;27;20807;-62
2023/02/17 12:25:37;;;;;;;6.00;2.80;;;;;;;;;;5135805;27;20031;-62
2023/02/17 12:28:16;;;;;;;3.80;2.73;;;;;;;;;;5136096;27;20038;-62
2023/02/17 12:30:44;;;;;;;8.60;2.50;;;;;;;;;;5136075;27;20025;-62
2023/02/17 12:33:32;;;;;;;3.07;2.13;;;;;;;;;;5131975;27;20027;-62
2023/02/17 12:36:02;;;;;;;3.50;2.37;;;;;;;;;;5130677;27;20259;-62
2023/02/17 12:38:33;;;;;;;2.30;2.07;;;;;;;;;;5130679;27;20034;-62
2023/02/17 12:41:09;;;;;;;3.90;2.20;;;;;;;;;;5130082;27;20050;-63
2023/02/17 12:43:39;;;;;;;3.47;2.50;;;;;;;;;;5134989;27;20412;-62
2023/02/17 12:46:09;;;;;;;2.20;1.47;;;;;;;;;;5135880;27;20023;-63
2023/02/17 12:48:52;;;;;;;4.83;3.17;;;;;;;;;;5135594;27;20327;-62
2023/02/17 12:51:24;;;;;;;3.77;2.80;;;;;;;;;;5134921;27;20027;-62
2023/02/17 12:53:54;;;;;;;5.17;2.53;;;;;;;;;;5134998;27;20034;-62
2023/02/17 12:56:33;;;;;;;4.07;2.80;;;;;;;;;;5130233;27;20019;-62
2023/02/17 12:59:05;;;;;;;2.13;1.70;;;;;;;;;;5130031;27;20283;-62
2023/02/17 13:01:32;;;;;;;6.67;1.90;;;;;;;;;;5129309;27;20741;-62
2023/02/17 13:03:59;;;;;;;3.03;1.83;;;;;;;;;;5130536;27;20265;-62
2023/02/17 13:06:41;;;;;;;3.57;2.77;;;;;;;;;;5135574;27;20809;-62
2023/02/17 13:09:27;;;;;;;3.03;2.27;;;;;;;;;;5135189;27;20260;-62
2023/02/17 13:11:53;;;;;;;3.97;3.20;;;;;;;;;;5134776;27;20516;-62
2023/02/17 13:14:26;;;;;;;5.80;2.90;;;;;;;;;;5128458;27;20084;-62
2023/02/17 13:16:52;;;;;;;6.40;3.30;;;;;;;;;;5112530;28;20252;-62
2023/02/17 13:19:29;;;;;;;3.53;2.63;;;;;;;;;;5123902;27;20283;-62
2023/02/17 13:21:58;;;;;;;5.30;2.80;;;;;;;;;;5130074;27;20252;-62
2023/02/17 13:24:38;;;;;;;5.63;2.60;;;;;;;;;;5129922;27;20267;-62
2023/02/17 13:27:11;;;;;;;3.97;2.67;;;;;;;;;;5132437;27;20256;-62
2023/02/17 13:29:38;;;;;;;2.60;2.10;;;;;;;;;;5134273;27;20316;-63
2023/02/17 13:32:06;;;;;;;3.13;2.03;;;;;;;;;;5134445;27;20262;-63
2023/02/17 13:34:43;;;;;;;12.20;3.80;;;;;;;;;;5134661;27;20354;-62
2023/02/17 13:37:18;;;;;;;14.27;4.30;;;;;;;;;;5135069;27;20817;-62
2023/02/17 13:39:45;;;;;;;8.68;3.67;;;;;;;;;;5130760;27;20289;-62
2023/02/17 13:42:30;;;;;;;8.27;2.80;;;;;;;;;;5129150;27;20444;-63
2023/02/17 13:44:57;;;;;;;34.30;3.47;;;;;;;;;;5129295;27;20496;-62
2023/02/17 13:47:34;;;;;;;3.47;2.70;;;;;;;;;;5129300;27;20442;-62
2023/02/17 13:50:01;;;;;;;11.93;3.37;;;;;;;;;;5133107;27;20051;-62
2023/02/17 13:52:29;;;;;;;28.00;4.03;;;;;;;;;;5134328;27;20027;-62
2023/02/17 13:54:57;;;;;;;3.97;2.90;;;;;;;;;;5134410;27;20423;-62
2023/02/17 13:57:24;;;;;;;7.97;3.20;;;;;;;;;;5134182;27;20035;-62
2023/02/17 13:59:51;;;;;;;18.70;3.07;;;;;;;;;;5133951;27;20019;-63
2023/02/17 14:02:19;;;;;;;12.47;3.47;;;;;;;;;;5130259;27;20047;-62
2023/02/17 14:04:46;;;;;;;4.17;2.10;;;;;;;;;;5128855;27;20031;-63
2023/02/17 14:07:12;;;;;;;3.13;2.13;;;;;;;;;;5128879;27;20055;-63
2023/02/17 14:09:41;;;;;;;3.03;2.00;;;;;;;;;;5128660;27;20031;-62
2023/02/17 14:12:15;;;;;;;3.40;1.77;;;;;;;;;;5132176;27;20385;-63
2023/02/17 14:14:42;;;;;;;3.30;1.90;;;;;;;;;;5133554;27;20065;-63
2023/02/17 14:17:14;;;;;;;2.77;1.27;;;;;;;;;;5134261;27;20027;-63
2023/02/17 14:19:44;;;;;;;2.07;0.90;;;;;;;;;;5133556;27;20031;-63
2023/02/17 14:22:33;;;;;;;0.60;0.60;;;;;;;;;;5133797;27;20031;-63
2023/02/17 14:25:00;;;;;;;1.00;0.80;;;;;;;;;;5128396;27;20058;-63
2023/02/17 14:27:26;;;;;;;2.83;1.80;;;;;;;;;;5128805;27;20054;-63
2023/02/17 14:29:53;;;;;;;0.57;0.57;;;;;;;;;;5128277;27;20424;-63
2023/02/17 14:32:27;;;;;;;1.47;0.90;;;;;;;;;;5128405;27;20537;-63
2023/02/17 14:34:53;;;;;;;0.87;0.83;;;;;;;;;;5132759;27;20027;-63
2023/02/17 14:37:23;;;;;;;1.03;0.70;;;;;;;;;;5133603;27;20075;-63
2023/02/17 14:39:50;;;;;;;0.97;0.70;;;;;;;;;;5132923;27;20027;-63
2023/02/17 14:42:17;;;;;;;1.33;0.83;;;;;;;;;;5133146;27;20019;-63
2023/02/17 14:44:44;;;;;;;2.83;1.40;;;;;;;;;;5133181;27;20381;-63
2023/02/17 14:47:11;;;;;;;4.57;1.33;;;;;;;;;;5127970;27;20023;-63
2023/02/17 14:49:37;;;;;;;1.50;0.77;;;;;;;;;;5128028;27;20497;-63
2023/02/17 14:52:23;;;;;;;4.17;0.93;;;;;;;;;;5128258;27;20407;-63
2023/02/17 14:54:50;;;;;;;2.37;1.40;;;;;;;;;;5127701;27;20496;-63
2023/02/17 14:57:17;;;;;;;1.10;0.87;;;;;;;;;;5133014;27;20023;-63
2023/02/17 14:59:44;;;;;;;1.63;1.20;;;;;;;;;;5133153;27;20126;-63